sensor_id;sensor_type;location;lat;lon;timestamp;pressure;altitude;pressure_sealevel;temperature;humidity
69245;BME280;56357;52.304;4.870;2023-01-29T00:01:30;103200.09;;;16.95;48.20
69245;BME280;56357;52.304;4.870;2023-01-29T00:03:57;103201.41;;;16.92;47.96
69245;BME280;56357;52.304;4.870;2023-01-29T00:06:23;103193.66;;;16.88;48.31
69245;BME280;56357;52.304;4.870;2023-01-29T00:08:49;103196.00;;;16.91;48.50
69245;BME280;56357;52.304;4.870;2023-01-29T00:11:16;103192.16;;;16.92;48.21
69245;BME280;56357;52.304;4.870;2023-01-29T00:13:44;103195.38;;;16.89;48.37
69245;BME280;56357;52.304;4.870;2023-01-29T00:16:10;103204.41;;;16.91;48.32
69245;BME280;56357;52.304;4.870;2023-01-29T00:18:38;103196.69;;;16.86;48.27
69245;BME280;56357;52.304;4.870;2023-01-29T00:21:09;103208.06;;;16.85;47.99
69245;BME280;56357;52.304;4.870;2023-01-29T00:23:36;103194.94;;;16.85;48.27
69245;BME280;56357;52.304;4.870;2023-01-29T00:26:03;103195.63;;;16.81;48.20
69245;BME280;56357;52.304;4.870;2023-01-29T00:28:30;103184.63;;;16.86;48.33
69245;BME280;56357;52.304;4.870;2023-01-29T00:30:56;103180.31;;;16.83;48.08
69245;BME280;56357;52.304;4.870;2023-01-29T00:33:22;103179.47;;;16.83;48.53
69245;BME280;56357;52.304;4.870;2023-01-29T00:35:49;103176.88;;;16.81;48.22
69245;BME280;56357;52.304;4.870;2023-01-29T00:38:15;103156.00;;;16.71;48.14
69245;BME280;56357;52.304;4.870;2023-01-29T00:40:42;103161.59;;;16.71;48.26
69245;BME280;56357;52.304;4.870;2023-01-29T00:43:37;103178.38;;;16.77;47.97
69245;BME280;56357;52.304;4.870;2023-01-29T00:46:21;103176.00;;;16.74;48.24
69245;BME280;56357;52.304;4.870;2023-01-29T00:48:47;103168.25;;;16.70;48.34
69245;BME280;56357;52.304;4.870;2023-01-29T00:51:14;103171.28;;;16.75;48.26
69245;BME280;56357;52.304;4.870;2023-01-29T00:53:40;103166.56;;;16.69;48.27
69245;BME280;56357;52.304;4.870;2023-01-29T00:56:06;103163.09;;;16.67;48.35
69245;BME280;56357;52.304;4.870;2023-01-29T00:58:33;103164.41;;;16.71;48.13
69245;BME280;56357;52.304;4.870;2023-01-29T01:01:00;103160.72;;;16.64;48.10
69245;BME280;56357;52.304;4.870;2023-01-29T01:03:28;103170.19;;;16.63;48.04
69245;BME280;56357;52.304;4.870;2023-01-29T01:06:08;103164.59;;;16.63;48.06
69245;BME280;56357;52.304;4.870;2023-01-29T01:08:35;103175.34;;;16.66;48.15
69245;BME280;56357;52.304;4.870;2023-01-29T01:11:19;103184.63;;;16.66;48.44
69245;BME280;56357;52.304;4.870;2023-01-29T01:13:46;103173.88;;;16.63;47.92
69245;BME280;56357;52.304;4.870;2023-01-29T01:16:15;103176.66;;;16.57;48.25
69245;BME280;56357;52.304;4.870;2023-01-29T01:18:42;103171.28;;;16.62;48.16
69245;BME280;56357;52.304;4.870;2023-01-29T01:21:09;103176.88;;;16.62;48.21
69245;BME280;56357;52.304;4.870;2023-01-29T01:23:35;103171.72;;;16.65;48.26
69245;BME280;56357;52.304;4.870;2023-01-29T01:26:07;103177.53;;;16.57;48.24
69245;BME280;56357;52.304;4.870;2023-01-29T01:28:34;103169.56;;;16.61;47.88
69245;BME280;56357;52.304;4.870;2023-01-29T01:31:08;103176.25;;;16.60;48.10
69245;BME280;56357;52.304;4.870;2023-01-29T01:33:35;103174.28;;;16.60;47.99
69245;BME280;56357;52.304;4.870;2023-01-29T01:36:03;103177.31;;;16.59;48.21
69245;BME280;56357;52.304;4.870;2023-01-29T01:38:33;103172.16;;;16.56;48.16
69245;BME280;56357;52.304;4.870;2023-01-29T01:40:59;103176.88;;;16.55;48.11
69245;BME280;56357;52.304;4.870;2023-01-29T01:43:26;103173.44;;;16.53;48.18
69245;BME280;56357;52.304;4.870;2023-01-29T01:45:52;103177.28;;;16.52;48.11
69245;BME280;56357;52.304;4.870;2023-01-29T01:48:22;103180.09;;;16.52;48.20
69245;BME280;56357;52.304;4.870;2023-01-29T01:50:57;103183.97;;;16.51;48.04
69245;BME280;56357;52.304;4.870;2023-01-29T01:53:34;103171.06;;;16.50;48.28
69245;BME280;56357;52.304;4.870;2023-01-29T01:56:13;103151.44;;;16.43;48.29
69245;BME280;56357;52.304;4.870;2023-01-29T01:58:56;103165.22;;;16.38;48.25
69245;BME280;56357;52.304;4.870;2023-01-29T02:01:25;103163.06;;;16.40;48.38
69245;BME280;56357;52.304;4.870;2023-01-29T02:04:02;103163.50;;;16.44;48.15
69245;BME280;56357;52.304;4.870;2023-01-29T02:06:48;103155.31;;;16.42;48.23
69245;BME280;56357;52.304;4.870;2023-01-29T02:09:45;103163.91;;;16.41;48.19
69245;BME280;56357;52.304;4.870;2023-01-29T02:12:15;103174.88;;;16.42;48.02
69245;BME280;56357;52.304;4.870;2023-01-29T02:14:43;103166.50;;;16.42;47.89
69245;BME280;56357;52.304;4.870;2023-01-29T02:17:16;103168.03;;;16.38;48.19
69245;BME280;56357;52.304;4.870;2023-01-29T02:22:45;103168.22;;;16.30;48.20
69245;BME280;56357;52.304;4.870;2023-01-29T02:30:45;103188.84;;;16.42;48.11
69245;BME280;56357;52.304;4.870;2023-01-29T02:38:56;103173.38;;;16.33;48.34
69245;BME280;56357;52.304;4.870;2023-01-29T02:41:28;103168.03;;;16.38;48.01
69245;BME280;56357;52.304;4.870;2023-01-29T02:44:28;103178.75;;;16.35;48.26
69245;BME280;56357;52.304;4.870;2023-01-29T02:47:02;103170.56;;;16.33;48.18
69245;BME280;56357;52.304;4.870;2023-01-29T02:54:50;103152.06;;;16.26;48.16
69245;BME280;56357;52.304;4.870;2023-01-29T02:57:22;103151.00;;;16.27;48.22
69245;BME280;56357;52.304;4.870;2023-01-29T02:59:56;103154.66;;;16.27;48.20
69245;BME280;56357;52.304;4.870;2023-01-29T03:02:35;103151.84;;;16.27;48.16
69245;BME280;56357;52.304;4.870;2023-01-29T03:05:09;103151.00;;;16.20;48.07
69245;BME280;56357;52.304;4.870;2023-01-29T03:07:42;103147.56;;;16.25;48.15
69245;BME280;56357;52.304;4.870;2023-01-29T03:10:38;103141.97;;;16.25;48.17
69245;BME280;56357;52.304;4.870;2023-01-29T03:13:21;103142.81;;;16.25;48.14
69245;BME280;56357;52.304;4.870;2023-01-29T03:15:56;103142.16;;;16.23;48.18
69245;BME280;56357;52.304;4.870;2023-01-29T03:18:30;103136.34;;;16.18;48.01
69245;BME280;56357;52.304;4.870;2023-01-29T03:21:05;103134.22;;;16.20;48.07
69245;BME280;56357;52.304;4.870;2023-01-29T03:23:54;103126.91;;;16.19;47.93
69245;BME280;56357;52.304;4.870;2023-01-29T03:26:40;103131.84;;;16.17;48.01
69245;BME280;56357;52.304;4.870;2023-01-29T03:29:25;103132.25;;;16.14;48.11
69245;BME280;56357;52.304;4.870;2023-01-29T03:32:09;103126.44;;;16.16;48.05
69245;BME280;56357;52.304;4.870;2023-01-29T03:34:45;103126.91;;;16.13;48.21
69245;BME280;56357;52.304;4.870;2023-01-29T03:37:19;103109.25;;;16.12;47.79
69245;BME280;56357;52.304;4.870;2023-01-29T03:39:46;103116.38;;;16.15;48.22
69245;BME280;56357;52.304;4.870;2023-01-29T03:47:47;103109.47;;;16.11;48.11
69245;BME280;56357;52.304;4.870;2023-01-29T03:53:07;103106.03;;;16.09;47.92
69245;BME280;56357;52.304;4.870;2023-01-29T03:55:44;103109.44;;;16.04;48.11
69245;BME280;56357;52.304;4.870;2023-01-29T04:01:17;103104.31;;;16.08;48.20
69245;BME280;56357;52.304;4.870;2023-01-29T04:04:19;103104.53;;;16.13;47.78
69245;BME280;56357;52.304;4.870;2023-01-29T04:06:49;103095.06;;;16.14;47.91
69245;BME280;56357;52.304;4.870;2023-01-29T04:09:33;103095.50;;;16.17;48.02
69245;BME280;56357;52.304;4.870;2023-01-29T04:12:06;103095.06;;;16.20;48.08
69245;BME280;56357;52.304;4.870;2023-01-29T04:14:35;103087.13;;;16.17;47.98
69245;BME280;56357;52.304;4.870;2023-01-29T04:17:36;103089.47;;;16.20;48.05
69245;BME280;56357;52.304;4.870;2023-01-29T04:20:03;103089.69;;;16.19;48.24
69245;BME280;56357;52.304;4.870;2023-01-29T04:22:35;103084.53;;;16.22;48.21
69245;BME280;56357;52.304;4.870;2023-01-29T04:25:07;103081.09;;;16.20;47.98
69245;BME280;56357;52.304;4.870;2023-01-29T04:28:18;103074.66;;;16.26;47.97
69245;BME280;56357;52.304;4.870;2023-01-29T04:30:57;103070.56;;;16.22;48.13
69245;BME280;56357;52.304;4.870;2023-01-29T04:33:41;103073.78;;;16.32;48.13
69245;BME280;56357;52.304;4.870;2023-01-29T04:39:01;103073.34;;;16.22;48.26
69245;BME280;56357;52.304;4.870;2023-01-29T04:42:05;103064.13;;;16.28;48.20
69245;BME280;56357;52.304;4.870;2023-01-29T04:44:58;103062.38;;;16.27;48.22
69245;BME280;56357;52.304;4.870;2023-01-29T04:47:48;103048.19;;;16.35;48.27
69245;BME280;56357;52.304;4.870;2023-01-29T04:50:38;103037.44;;;16.32;48.29
69245;BME280;56357;52.304;4.870;2023-01-29T04:53:21;103040.88;;;16.28;48.25
69245;BME280;56357;52.304;4.870;2023-01-29T04:55:53;103040.25;;;16.32;48.47
69245;BME280;56357;52.304;4.870;2023-01-29T04:58:30;103047.97;;;16.30;48.26
69245;BME280;56357;52.304;4.870;2023-01-29T05:00:58;103044.75;;;16.33;48.50
69245;BME280;56357;52.304;4.870;2023-01-29T05:03:28;103040.44;;;16.37;48.63
69245;BME280;56357;52.304;4.870;2023-01-29T05:05:56;103052.03;;;16.41;48.36
69245;BME280;56357;52.304;4.870;2023-01-29T05:08:24;103046.69;;;16.39;48.29
69245;BME280;56357;52.304;4.870;2023-01-29T05:10:53;103046.03;;;16.37;48.28
69245;BME280;56357;52.304;4.870;2023-01-29T05:13:22;103051.63;;;16.37;48.51
69245;BME280;56357;52.304;4.870;2023-01-29T05:15:55;103051.44;;;16.32;48.51
69245;BME280;56357;52.304;4.870;2023-01-29T05:18:25;103053.78;;;16.35;48.47
69245;BME280;56357;52.304;4.870;2023-01-29T05:20:52;103045.59;;;16.34;48.47
69245;BME280;56357;52.304;4.870;2023-01-29T05:23:22;103036.56;;;16.45;48.29
69245;BME280;56357;52.304;4.870;2023-01-29T05:25:49;103041.31;;;16.38;48.55
69245;BME280;56357;52.304;4.870;2023-01-29T05:28:17;103029.03;;;16.45;48.26
69245;BME280;56357;52.304;4.870;2023-01-29T05:30:47;103034.63;;;16.45;48.50
69245;BME280;56357;52.304;4.870;2023-01-29T05:33:23;103033.97;;;16.43;48.00
69245;BME280;56357;52.304;4.870;2023-01-29T05:35:50;103034.84;;;16.37;48.63
69245;BME280;56357;52.304;4.870;2023-01-29T05:38:18;103031.59;;;16.47;48.29
69245;BME280;56357;52.304;4.870;2023-01-29T05:40:45;103038.53;;;16.51;48.60
69245;BME280;56357;52.304;4.870;2023-01-29T05:43:24;103046.47;;;16.47;48.42
69245;BME280;56357;52.304;4.870;2023-01-29T05:45:56;103039.38;;;16.38;48.77
69245;BME280;56357;52.304;4.870;2023-01-29T05:48:23;103045.41;;;16.48;48.53
69245;BME280;56357;52.304;4.870;2023-01-29T05:50:50;103028.63;;;16.48;48.69
69245;BME280;56357;52.304;4.870;2023-01-29T05:53:16;103020.66;;;16.52;48.38
69245;BME280;56357;52.304;4.870;2023-01-29T05:55:46;103015.06;;;16.52;48.40
69245;BME280;56357;52.304;4.870;2023-01-29T05:58:13;103010.31;;;16.53;48.33
69245;BME280;56357;52.304;4.870;2023-01-29T06:00:40;103011.84;;;16.48;48.46
69245;BME280;56357;52.304;4.870;2023-01-29T06:03:07;103002.81;;;16.53;48.55
69245;BME280;56357;52.304;4.870;2023-01-29T06:05:37;102998.28;;;16.52;48.46
69245;BME280;56357;52.304;4.870;2023-01-29T06:08:03;103000.41;;;16.57;48.28
69245;BME280;56357;52.304;4.870;2023-01-29T06:10:30;103001.28;;;16.51;48.54
69245;BME280;56357;52.304;4.870;2023-01-29T06:12:56;102998.03;;;16.67;48.27
69245;BME280;56357;52.304;4.870;2023-01-29T06:15:23;102986.22;;;16.58;48.03
69245;BME280;56357;52.304;4.870;2023-01-29T06:17:52;102988.38;;;16.56;48.17
69245;BME280;56357;52.304;4.870;2023-01-29T06:20:19;102976.53;;;16.61;48.49
69245;BME280;56357;52.304;4.870;2023-01-29T06:22:45;102974.16;;;16.64;48.30
69245;BME280;56357;52.304;4.870;2023-01-29T06:25:11;102979.97;;;16.63;48.22
69245;BME280;56357;52.304;4.870;2023-01-29T06:27:38;102985.56;;;16.56;48.12
69245;BME280;56357;52.304;4.870;2023-01-29T06:30:05;102986.19;;;16.65;48.40
69245;BME280;56357;52.304;4.870;2023-01-29T06:32:32;102978.69;;;16.65;48.59
69245;BME280;56357;52.304;4.870;2023-01-29T06:34:58;102969.88;;;16.62;48.52
69245;BME280;56357;52.304;4.870;2023-01-29T06:37:25;102972.66;;;16.62;48.63
69245;BME280;56357;52.304;4.870;2023-01-29T06:39:51;102975.88;;;16.65;48.73
69245;BME280;56357;52.304;4.870;2023-01-29T06:42:18;102978.91;;;16.57;49.11
69245;BME280;56357;52.304;4.870;2023-01-29T06:44:44;102974.38;;;16.63;48.73
69245;BME280;56357;52.304;4.870;2023-01-29T06:47:11;102982.31;;;16.66;48.98
69245;BME280;56357;52.304;4.870;2023-01-29T06:49:37;102983.22;;;16.60;49.01
69245;BME280;56357;52.304;4.870;2023-01-29T06:52:04;102976.72;;;16.66;48.95
69245;BME280;56357;52.304;4.870;2023-01-29T06:54:30;102975.03;;;16.58;49.15
69245;BME280;56357;52.304;4.870;2023-01-29T06:56:56;102973.72;;;16.54;50.17
69245;BME280;56357;52.304;4.870;2023-01-29T06:59:23;102968.09;;;16.74;49.50
69245;BME280;56357;52.304;4.870;2023-01-29T07:01:49;102965.75;;;16.71;49.56
69245;BME280;56357;52.304;4.870;2023-01-29T07:04:16;102977.56;;;16.73;49.58
69245;BME280;56357;52.304;4.870;2023-01-29T07:06:42;102960.97;;;16.78;49.87
69245;BME280;56357;52.304;4.870;2023-01-29T07:09:11;102969.59;;;16.70;49.33
69245;BME280;56357;52.304;4.870;2023-01-29T07:11:38;102976.69;;;16.79;50.16
69245;BME280;56357;52.304;4.870;2023-01-29T07:14:05;102959.00;;;16.85;49.93
69245;BME280;56357;52.304;4.870;2023-01-29T07:16:32;102978.81;;;16.83;50.40
69245;BME280;56357;52.304;4.870;2023-01-29T07:18:58;102975.59;;;16.80;49.79
69245;BME280;56357;52.304;4.870;2023-01-29T07:21:25;102974.31;;;16.76;50.02
69245;BME280;56357;52.304;4.870;2023-01-29T07:23:52;102990.22;;;16.82;49.87
69245;BME280;56357;52.304;4.870;2023-01-29T07:26:18;102989.16;;;16.83;50.26
69245;BME280;56357;52.304;4.870;2023-01-29T07:28:45;102985.91;;;16.86;49.66
69245;BME280;56357;52.304;4.870;2023-01-29T07:31:12;102982.06;;;16.74;50.68
69245;BME280;56357;52.304;4.870;2023-01-29T07:33:41;102977.09;;;16.82;50.23
69245;BME280;56357;52.304;4.870;2023-01-29T07:36:09;102962.66;;;16.85;50.63
69245;BME280;56357;52.304;4.870;2023-01-29T07:38:35;102960.50;;;16.94;50.65
69245;BME280;56357;52.304;4.870;2023-01-29T07:41:02;102957.91;;;16.92;50.33
69245;BME280;56357;52.304;4.870;2023-01-29T07:43:29;102958.13;;;16.91;50.72
69245;BME280;56357;52.304;4.870;2023-01-29T07:45:55;102959.38;;;16.95;50.75
69245;BME280;56357;52.304;4.870;2023-01-29T07:48:22;102957.03;;;16.92;50.98
69245;BME280;56357;52.304;4.870;2023-01-29T07:50:58;102959.78;;;17.05;50.82
69245;BME280;56357;52.304;4.870;2023-01-29T07:53:25;102947.56;;;16.93;51.30
69245;BME280;56357;52.304;4.870;2023-01-29T07:55:52;102940.91;;;16.94;51.58
69245;BME280;56357;52.304;4.870;2023-01-29T07:58:18;102936.75;;;17.03;51.34
69245;BME280;56357;52.304;4.870;2023-01-29T08:00:45;102933.09;;;17.02;51.06
69245;BME280;56357;52.304;4.870;2023-01-29T08:03:14;102929.84;;;17.05;51.17
69245;BME280;56357;52.304;4.870;2023-01-29T08:05:42;102938.66;;;17.09;50.95
69245;BME280;56357;52.304;4.870;2023-01-29T08:08:08;102931.31;;;17.08;51.04
69245;BME280;56357;52.304;4.870;2023-01-29T08:10:35;102936.09;;;17.07;51.22
69245;BME280;56357;52.304;4.870;2023-01-29T08:13:03;102931.53;;;17.13;50.84
69245;BME280;56357;52.304;4.870;2023-01-29T08:15:30;102916.69;;;17.06;51.09
69245;BME280;56357;52.304;4.870;2023-01-29T08:17:56;102936.72;;;17.09;50.92
69245;BME280;56357;52.304;4.870;2023-01-29T08:20:23;102930.25;;;17.09;51.05
69245;BME280;56357;52.304;4.870;2023-01-29T08:22:57;102938.63;;;17.15;50.69
69245;BME280;56357;52.304;4.870;2023-01-29T08:25:24;102936.25;;;17.12;51.05
69245;BME280;56357;52.304;4.870;2023-01-29T08:27:50;102933.03;;;17.15;51.26
69245;BME280;56357;52.304;4.870;2023-01-29T08:30:17;102930.00;;;17.17;51.28
69245;BME280;56357;52.304;4.870;2023-01-29T08:32:43;102931.75;;;17.11;51.58
69245;BME280;56357;52.304;4.870;2023-01-29T08:35:09;102916.16;;;17.22;51.26
69245;BME280;56357;52.304;4.870;2023-01-29T08:37:36;102917.28;;;17.21;51.07
69245;BME280;56357;52.304;4.870;2023-01-29T08:40:02;102915.00;;;17.05;51.58
69245;BME280;56357;52.304;4.870;2023-01-29T08:42:29;102928.03;;;17.17;51.71
69245;BME280;56357;52.304;4.870;2023-01-29T08:44:55;102914.66;;;17.19;51.19
69245;BME280;56357;52.304;4.870;2023-01-29T08:47:21;102908.88;;;17.21;51.45
69245;BME280;56357;52.304;4.870;2023-01-29T08:49:48;102913.13;;;17.23;51.61
69245;BME280;56357;52.304;4.870;2023-01-29T08:52:14;102911.03;;;17.19;51.56
69245;BME280;56357;52.304;4.870;2023-01-29T08:54:41;102911.97;;;17.06;51.51
69245;BME280;56357;52.304;4.870;2023-01-29T08:57:07;102905.03;;;17.15;51.28
69245;BME280;56357;52.304;4.870;2023-01-29T08:59:33;102902.00;;;17.17;50.89
69245;BME280;56357;52.304;4.870;2023-01-29T09:02:00;102891.03;;;17.15;51.34
69245;BME280;56357;52.304;4.870;2023-01-29T09:04:26;102899.44;;;17.15;51.43
69245;BME280;56357;52.304;4.870;2023-01-29T09:06:53;102900.91;;;17.18;51.40
69245;BME280;56357;52.304;4.870;2023-01-29T09:09:19;102903.31;;;17.14;51.65
69245;BME280;56357;52.304;4.870;2023-01-29T09:11:45;102903.94;;;17.16;51.42
69245;BME280;56357;52.304;4.870;2023-01-29T09:14:12;102896.72;;;17.33;50.97
69245;BME280;56357;52.304;4.870;2023-01-29T09:16:39;102899.59;;;17.20;51.82
69245;BME280;56357;52.304;4.870;2023-01-29T09:19:05;102901.91;;;17.30;51.87
69245;BME280;56357;52.304;4.870;2023-01-29T09:21:32;102900.88;;;17.24;52.05
69245;BME280;56357;52.304;4.870;2023-01-29T09:23:58;102904.59;;;17.12;52.87
69245;BME280;56357;52.304;4.870;2023-01-29T09:26:25;102903.78;;;17.05;53.35
69245;BME280;56357;52.304;4.870;2023-01-29T09:28:51;102905.97;;;17.34;53.60
69245;BME280;56357;52.304;4.870;2023-01-29T09:31:17;102899.25;;;17.42;52.85
69245;BME280;56357;52.304;4.870;2023-01-29T09:33:44;102904.06;;;17.28;52.69
69245;BME280;56357;52.304;4.870;2023-01-29T09:36:10;102904.53;;;17.25;51.88
69245;BME280;56357;52.304;4.870;2023-01-29T09:38:36;102904.72;;;17.30;52.19
69245;BME280;56357;52.304;4.870;2023-01-29T09:43:54;102895.28;;;17.24;51.51
69245;BME280;56357;52.304;4.870;2023-01-29T09:46:29;102896.88;;;17.38;51.48
69245;BME280;56357;52.304;4.870;2023-01-29T09:49:11;102895.34;;;17.42;52.46
69245;BME280;56357;52.304;4.870;2023-01-29T09:51:48;102887.38;;;17.46;52.67
69245;BME280;56357;52.304;4.870;2023-01-29T09:54:35;102887.78;;;17.50;51.70
69245;BME280;56357;52.304;4.870;2023-01-29T09:57:12;102880.19;;;17.57;52.53
69245;BME280;56357;52.304;4.870;2023-01-29T09:59:42;102874.06;;;17.66;52.40
69245;BME280;56357;52.304;4.870;2023-01-29T10:05:11;102871.13;;;17.79;51.58
69245;BME280;56357;52.304;4.870;2023-01-29T10:13:22;102860.94;;;17.85;53.00
69245;BME280;56357;52.304;4.870;2023-01-29T10:16:50;102857.94;;;17.86;52.46
69245;BME280;56357;52.304;4.870;2023-01-29T10:19:11;102850.94;;;17.95;52.02
69245;BME280;56357;52.304;4.870;2023-01-29T10:26:52;102853.78;;;17.89;52.16
69245;BME280;56357;52.304;4.870;2023-01-29T10:29:19;102850.16;;;17.88;52.30
69245;BME280;56357;52.304;4.870;2023-01-29T10:31:52;102848.38;;;17.94;52.01
69245;BME280;56357;52.304;4.870;2023-01-29T10:34:34;102847.09;;;17.90;53.06
69245;BME280;56357;52.304;4.870;2023-01-29T10:37:18;102850.22;;;17.82;53.76
69245;BME280;56357;52.304;4.870;2023-01-29T10:39:48;102837.44;;;17.86;53.08
69245;BME280;56357;52.304;4.870;2023-01-29T10:42:34;102843.91;;;17.86;53.01
69245;BME280;56357;52.304;4.870;2023-01-29T10:45:38;102840.50;;;18.02;52.02
69245;BME280;56357;52.304;4.870;2023-01-29T10:48:43;102837.22;;;17.87;53.23
69245;BME280;56357;52.304;4.870;2023-01-29T10:58:56;102835.16;;;17.76;52.95
69245;BME280;56357;52.304;4.870;2023-01-29T11:01:24;102825.59;;;17.84;53.14
69245;BME280;56357;52.304;4.870;2023-01-29T11:03:56;102828.16;;;17.85;52.68
69245;BME280;56357;52.304;4.870;2023-01-29T11:06:29;102831.59;;;17.87;52.98
69245;BME280;56357;52.304;4.870;2023-01-29T11:11:51;102819.84;;;17.97;52.62
69245;BME280;56357;52.304;4.870;2023-01-29T11:14:32;102804.81;;;17.91;53.04
69245;BME280;56357;52.304;4.870;2023-01-29T11:17:02;102799.78;;;18.00;52.72
69245;BME280;56357;52.304;4.870;2023-01-29T11:19:39;102789.72;;;18.10;52.71
69245;BME280;56357;52.304;4.870;2023-01-29T11:24:37;102792.91;;;18.14;51.73
69245;BME280;56357;52.304;4.870;2023-01-29T11:27:20;102783.09;;;18.05;53.36
69245;BME280;56357;52.304;4.870;2023-01-29T11:29:53;102773.94;;;17.98;51.61
69245;BME280;56357;52.304;4.870;2023-01-29T11:37:43;102780.53;;;18.03;51.45
69245;BME280;56357;52.304;4.870;2023-01-29T11:42:47;102777.13;;;18.01;50.64
69245;BME280;56357;52.304;4.870;2023-01-29T11:45:32;102763.88;;;17.90;51.07
69245;BME280;56357;52.304;4.870;2023-01-29T11:47:59;102752.78;;;17.77;51.44
69245;BME280;56357;52.304;4.870;2023-01-29T11:50:28;102764.66;;;17.97;51.28
69245;BME280;56357;52.304;4.870;2023-01-29T11:52:59;102756.63;;;18.01;50.71
69245;BME280;56357;52.304;4.870;2023-01-29T11:55:29;102748.38;;;17.88;51.01
69245;BME280;56357;52.304;4.870;2023-01-29T11:58:10;102736.22;;;17.94;50.92
69245;BME280;56357;52.304;4.870;2023-01-29T12:00:40;102736.38;;;17.99;50.04
69245;BME280;56357;52.304;4.870;2023-01-29T12:03:11;102736.13;;;18.00;50.12
69245;BME280;56357;52.304;4.870;2023-01-29T12:05:53;102724.16;;;17.93;50.58
69245;BME280;56357;52.304;4.870;2023-01-29T12:08:22;102735.00;;;17.90;50.14
69245;BME280;56357;52.304;4.870;2023-01-29T12:10:49;102729.00;;;17.86;51.02
69245;BME280;56357;52.304;4.870;2023-01-29T12:13:26;102719.47;;;17.87;50.25
69245;BME280;56357;52.304;4.870;2023-01-29T12:19:16;102724.94;;;17.82;50.96
69245;BME280;56357;52.304;4.870;2023-01-29T12:21:53;102717.44;;;17.94;50.44
69245;BME280;56357;52.304;4.870;2023-01-29T12:24:40;102704.84;;;17.85;50.44
69245;BME280;56357;52.304;4.870;2023-01-29T12:27:16;102699.72;;;17.82;50.37
69245;BME280;56357;52.304;4.870;2023-01-29T12:29:45;102690.50;;;17.93;50.46
69245;BME280;56357;52.304;4.870;2023-01-29T12:35:23;102684.44;;;17.96;49.80
69245;BME280;56357;52.304;4.870;2023-01-29T12:40:51;102664.75;;;17.85;48.94
69245;BME280;56357;52.304;4.870;2023-01-29T12:45:56;102637.44;;;17.80;48.42
69245;BME280;56357;52.304;4.870;2023-01-29T12:48:27;102642.44;;;17.78;48.54
69245;BME280;56357;52.304;4.870;2023-01-29T12:51:02;102631.84;;;17.80;48.04
69245;BME280;56357;52.304;4.870;2023-01-29T12:56:17;102611.44;;;17.73;47.89
69245;BME280;56357;52.304;4.870;2023-01-29T12:58:46;102613.28;;;17.79;48.24
69245;BME280;56357;52.304;4.870;2023-01-29T13:01:27;102596.09;;;17.76;47.78
69245;BME280;56357;52.304;4.870;2023-01-29T13:04:08;102587.25;;;17.79;47.81
69245;BME280;56357;52.304;4.870;2023-01-29T13:07:00;102582.94;;;17.76;47.51
69245;BME280;56357;52.304;4.870;2023-01-29T13:09:30;102577.81;;;17.73;47.81
69245;BME280;56357;52.304;4.870;2023-01-29T13:12:02;102579.41;;;17.69;47.94
69245;BME280;56357;52.304;4.870;2023-01-29T13:14:39;102576.25;;;17.77;48.30
69245;BME280;56357;52.304;4.870;2023-01-29T13:17:20;102569.06;;;17.81;48.72
69245;BME280;56357;52.304;4.870;2023-01-29T13:19:51;102558.47;;;17.83;49.26
69245;BME280;56357;52.304;4.870;2023-01-29T13:22:27;102556.91;;;17.87;48.93
69245;BME280;56357;52.304;4.870;2023-01-29T13:24:56;102551.41;;;17.81;49.49
69245;BME280;56357;52.304;4.870;2023-01-29T13:27:31;102547.75;;;17.80;49.52
69245;BME280;56357;52.304;4.870;2023-01-29T13:29:58;102534.97;;;17.84;48.81
69245;BME280;56357;52.304;4.870;2023-01-29T13:32:27;102544.22;;;17.85;49.08
69245;BME280;56357;52.304;4.870;2023-01-29T13:34:56;102521.53;;;17.75;49.25
69245;BME280;56357;52.304;4.870;2023-01-29T13:37:25;102532.75;;;17.75;48.42
69245;BME280;56357;52.304;4.870;2023-01-29T13:39:54;102524.09;;;17.76;48.54
69245;BME280;56357;52.304;4.870;2023-01-29T13:42:39;102532.13;;;17.73;48.18
69245;BME280;56357;52.304;4.870;2023-01-29T13:45:16;102517.88;;;17.74;48.32
69245;BME280;56357;52.304;4.870;2023-01-29T13:47:43;102515.69;;;17.76;48.49
69245;BME280;56357;52.304;4.870;2023-01-29T13:50:34;102517.75;;;17.69;48.15
69245;BME280;56357;52.304;4.870;2023-01-29T13:53:03;102507.63;;;17.68;48.14
69245;BME280;56357;52.304;4.870;2023-01-29T13:55:35;102515.06;;;17.74;48.28
69245;BME280;56357;52.304;4.870;2023-01-29T13:58:53;102522.38;;;17.75;48.26
69245;BME280;56357;52.304;4.870;2023-01-29T14:00:54;102505.34;;;17.77;48.36
69245;BME280;56357;52.304;4.870;2023-01-29T14:08:42;102508.19;;;17.59;48.29
69245;BME280;56357;52.304;4.870;2023-01-29T14:13:39;102492.38;;;17.64;48.43
69245;BME280;56357;52.304;4.870;2023-01-29T14:18:55;102494.31;;;17.64;47.65
69245;BME280;56357;52.304;4.870;2023-01-29T14:21:25;102486.16;;;17.62;47.41
69245;BME280;56357;52.304;4.870;2023-01-29T14:26:39;102466.03;;;17.54;47.49
69245;BME280;56357;52.304;4.870;2023-01-29T14:31:49;102465.31;;;17.58;47.45
69245;BME280;56357;52.304;4.870;2023-01-29T14:34:25;102454.44;;;17.50;47.32
69245;BME280;56357;52.304;4.870;2023-01-29T14:37:00;102459.56;;;17.53;47.46
69245;BME280;56357;52.304;4.870;2023-01-29T14:39:35;102457.84;;;17.52;47.85
69245;BME280;56357;52.304;4.870;2023-01-29T14:42:12;102460.66;;;17.52;47.63
69245;BME280;56357;52.304;4.870;2023-01-29T14:47:19;102462.63;;;17.52;47.43
69245;BME280;56357;52.304;4.870;2023-01-29T14:52:20;102450.84;;;17.61;47.37
69245;BME280;56357;52.304;4.870;2023-01-29T14:54:49;102454.97;;;17.59;47.29
69245;BME280;56357;52.304;4.870;2023-01-29T14:57:17;102445.38;;;17.66;47.23
69245;BME280;56357;52.304;4.870;2023-01-29T15:00:02;102441.94;;;17.64;47.51
69245;BME280;56357;52.304;4.870;2023-01-29T15:02:37;102447.53;;;17.64;47.40